Time;durP1;ratioP1;P1;durP2;ratioP2;P2;SDS_P1;SDS_P2;PMS_P1;PMS_P2;Temp;Humidity;BMP_temperature;BMP_pressure;BME280_temperature;BME280_humidity;BME280_pressure;Samples;Min_cycle;Max_cycle;Signal;HPM_P1;HPM_P2
2022/01/12 00:00:06;;;;;;;;;;;;;;;;;;4223132;28;1015;-58
2022/01/12 00:02:45;;;;;;;;;;;;;;;;;;4222873;28;966;-59
2022/01/12 00:05:06;;;;;;;;;;;;;;;;;;4222748;28;1971;-58
2022/01/12 00:07:26;;;;;;;;;;;;;;;;;;4222852;28;1116;-58
2022/01/12 00:09:47;;;;;;;;;;;;;;;;;;4222794;28;824;-59
2022/01/12 00:12:07;;;;;;;;;;;;;;;;;;4222475;28;970;-59
2022/01/12 00:14:28;;;;;;;;;;;;;;;;;;4222671;28;1068;-58
2022/01/12 00:16:50;;;;;;;;;;;;;;;;;;4221687;28;890;-59
2022/01/12 00:19:10;;;;;;;;;;;;;;;;;;4222636;28;1080;-58
2022/01/12 00:21:31;;;;;;;;;;;;;;;;;;4222742;28;1039;-59
2022/01/12 00:23:52;;;;;;;;;;;;;;;;;;4222514;28;1986;-59
2022/01/12 00:26:24;;;;;;;;;;;;;;;;;;4222573;28;1052;-59
2022/01/12 00:34:08;;;;;;;;;;;;;;;;;;4221494;28;923;-58
2022/01/12 00:36:28;;;;;;;;;;;;;;;;;;4221542;28;1045;-58
2022/01/12 00:38:48;;;;;;;;;;;;;;;;;;4222454;28;1062;-58
2022/01/12 00:41:09;;;;;;;;;;;;;;;;;;4221396;28;850;-63
2022/01/12 00:43:33;;;;;;;;;;;;;;;;;;4222401;28;2004;-58
2022/01/12 00:45:54;;;;;;;;;;;;;;;;;;4221412;28;955;-58
2022/01/12 00:48:15;;;;;;;;;;;;;;;;;;4222463;28;997;-58
2022/01/12 00:50:35;;;;;;;;;;;;;;;;;;4222262;28;922;-58
2022/01/12 00:52:56;;;;;;;;;;;;;;;;;;4222058;28;1019;-58
2022/01/12 00:55:17;;;;;;;;;;;;;;;;;;4221270;28;905;-58
2022/01/12 00:57:40;;;;;;;;;;;;;;;;;;4222179;28;836;-58
2022/01/12 01:00:01;;;;;;;;;;;;;;;;;;4222215;28;945;-58
2022/01/12 01:02:21;;;;;;;;;;;;;;;;;;4221123;28;990;-58
2022/01/12 01:04:42;;;;;;;;;;;;;;;;;;4222132;28;1902;-58
2022/01/12 01:07:02;;;;;;;;;;;;;;;;;;4222080;28;946;-58
2022/01/12 01:09:24;;;;;;;;;;;;;;;;;;4220620;28;946;-58
2022/01/12 01:11:47;;;;;;;;;;;;;;;;;;4221084;28;954;-58
2022/01/12 01:14:15;;;;;;;;;;;;;;;;;;4220427;28;1379;-58
2022/01/12 01:16:49;;;;;;;;;;;;;;;;;;4220823;28;899;-58
2022/01/12 01:27:13;;;;;;;;;;;;;;;;;;4220895;28;866;-58
2022/01/12 01:29:36;;;;;;;;;;;;;;;;;;4220879;28;904;-58
2022/01/12 01:31:57;;;;;;;;;;;;;;;;;;4220831;28;1100;-58
2022/01/12 01:34:17;;;;;;;;;;;;;;;;;;4221512;28;1144;-58
2022/01/12 01:36:39;;;;;;;;;;;;;;;;;;4220380;28;1055;-58
2022/01/12 01:39:00;;;;;;;;;;;;;;;;;;4220282;28;949;-58
2022/01/12 01:41:20;;;;;;;;;;;;;;;;;;4220856;28;1028;-58
2022/01/12 01:43:58;;;;;;;;;;;;;;;;;;4220802;28;1077;-58
2022/01/12 01:54:13;;;;;;;;;;;;;;;;;;4221640;28;1062;-58
2022/01/12 01:56:34;;;;;;;;;;;;;;;;;;4220394;28;1006;-58
2022/01/12 01:58:54;;;;;;;;;;;;;;;;;;4219923;28;858;-58
2022/01/12 02:04:05;;;;;;;;;;;;;;;;;;4220411;28;1914;-58
2022/01/12 02:06:29;;;;;;;;;;;;;;;;;;4221322;28;1264;-58
2022/01/12 02:08:57;;;;;;;;;;;;;;;;;;4222032;28;1042;-58
2022/01/12 02:11:34;;;;;;;;;;;;;;;;;;4222329;28;957;-58
2022/01/12 02:14:07;;;;;;;;;;;;;;;;;;4220564;28;1197;-58
2022/01/12 02:16:49;;;;;;;;;;;;;;;;;;4223434;28;1017;-58
2022/01/12 02:19:20;;;;;;;;;;;;;;;;;;4222590;28;1192;-58
2022/01/12 02:35:21;;;;;;;;;;;;;;;;;;4222687;28;1075;-58
2022/01/12 02:40:21;;;;;;;;;;;;;;;;;;4224109;28;829;-58
2022/01/12 02:42:45;;;;;;;;;;;;;;;;;;4222720;28;840;-58
2022/01/12 02:50:46;;;;;;;;;;;;;;;;;;4222198;28;1159;-58
2022/01/12 02:55:45;;;;;;;;;;;;;;;;;;4223833;28;936;-58
2022/01/12 02:58:06;;;;;;;;;;;;;;;;;;4224306;28;858;-58
2022/01/12 03:00:35;;;;;;;;;;;;;;;;;;4223521;28;998;-58
2022/01/12 03:03:02;;;;;;;;;;;;;;;;;;4223191;28;1020;-58
2022/01/12 03:05:44;;;;;;;;;;;;;;;;;;4223419;28;1914;-58
2022/01/12 03:08:11;;;;;;;;;;;;;;;;;;4222602;28;927;-58
2022/01/12 03:10:33;;;;;;;;;;;;;;;;;;4222744;28;943;-58
2022/01/12 03:12:53;;;;;;;;;;;;;;;;;;4222340;28;1012;-58
2022/01/12 03:15:14;;;;;;;;;;;;;;;;;;4222156;28;1025;-58
2022/01/12 03:17:35;;;;;;;;;;;;;;;;;;4221417;28;855;-58
2022/01/12 03:19:55;;;;;;;;;;;;;;;;;;4223425;28;987;-58
2022/01/12 03:22:15;;;;;;;;;;;;;;;;;;4222660;28;1053;-60
2022/01/12 03:24:36;;;;;;;;;;;;;;;;;;4222075;28;1913;-58
2022/01/12 03:26:57;;;;;;;;;;;;;;;;;;4222291;28;1007;-58
2022/01/12 03:29:18;;;;;;;;;;;;;;;;;;4221692;28;993;-59
2022/01/12 03:31:39;;;;;;;;;;;;;;;;;;4223272;28;1014;-58
2022/01/12 03:34:06;;;;;;;;;;;;;;;;;;4223269;28;999;-58
2022/01/12 03:36:39;;;;;;;;;;;;;;;;;;4222122;28;842;-58
2022/01/12 03:38:59;;;;;;;;;;;;;;;;;;4222191;28;1183;-58
2022/01/12 03:41:19;;;;;;;;;;;;;;;;;;4222916;28;1109;-58
2022/01/12 03:43:40;;;;;;;;;;;;;;;;;;4221483;28;968;-58
2022/01/12 03:46:01;;;;;;;;;;;;;;;;;;4222094;28;1987;-59
2022/01/12 03:48:22;;;;;;;;;;;;;;;;;;4222130;28;1066;-58
2022/01/12 03:50:43;;;;;;;;;;;;;;;;;;4222000;28;961;-58
2022/01/12 03:53:03;;;;;;;;;;;;;;;;;;4222084;28;898;-58
2022/01/12 03:55:23;;;;;;;;;;;;;;;;;;4223114;28;944;-58
2022/01/12 03:57:44;;;;;;;;;;;;;;;;;;4221762;28;935;-58
2022/01/12 04:00:04;;;;;;;;;;;;;;;;;;4221845;28;930;-59
2022/01/12 04:02:34;;;;;;;;;;;;;;;;;;4222857;28;989;-58
2022/01/12 04:05:10;;;;;;;;;;;;;;;;;;4221510;28;1906;-58
2022/01/12 04:10:10;;;;;;;;;;;;;;;;;;4221328;28;1046;-57
2022/01/12 04:12:30;;;;;;;;;;;;;;;;;;4221622;28;943;-58
2022/01/12 04:14:51;;;;;;;;;;;;;;;;;;4221848;28;1027;-58
2022/01/12 04:17:12;;;;;;;;;;;;;;;;;;4222435;28;841;-58
2022/01/12 04:19:37;;;;;;;;;;;;;;;;;;4221609;28;1197;-58
2022/01/12 04:22:07;;;;;;;;;;;;;;;;;;4221785;28;1034;-58
2022/01/12 04:24:27;;;;;;;;;;;;;;;;;;4221314;28;949;-58
2022/01/12 04:26:47;;;;;;;;;;;;;;;;;;4221567;28;948;-58
2022/01/12 04:29:08;;;;;;;;;;;;;;;;;;4222360;28;932;-57
2022/01/12 04:31:29;;;;;;;;;;;;;;;;;;4221356;28;1289;-58
2022/01/12 04:33:50;;;;;;;;;;;;;;;;;;4221569;28;917;-58
2022/01/12 04:36:11;;;;;;;;;;;;;;;;;;4221513;28;895;-58
2022/01/12 04:38:33;;;;;;;;;;;;;;;;;;4222532;28;1040;-58
2022/01/12 04:40:56;;;;;;;;;;;;;;;;;;4221382;28;1018;-58
2022/01/12 04:43:16;;;;;;;;;;;;;;;;;;4222467;28;935;-58
2022/01/12 04:45:46;;;;;;;;;;;;;;;;;;4222406;28;1979;-58
2022/01/12 04:48:31;;;;;;;;;;;;;;;;;;4221084;28;1024;-58
2022/01/12 04:50:51;;;;;;;;;;;;;;;;;;4220833;28;993;-57
2022/01/12 04:53:11;;;;;;;;;;;;;;;;;;4221480;28;1051;-58
2022/01/12 04:55:31;;;;;;;;;;;;;;;;;;4220930;28;1169;-58
2022/01/12 04:57:52;;;;;;;;;;;;;;;;;;4222275;28;940;-58
2022/01/12 05:00:14;;;;;;;;;;;;;;;;;;4221058;28;887;-58
2022/01/12 05:08:12;;;;;;;;;;;;;;;;;;4183787;28;1183;-58
2022/01/12 05:13:12;;;;;;;;;;;;;;;;;;4220147;28;1583;-58
2022/01/12 05:15:35;;;;;;;;;;;;;;;;;;4219906;28;1977;-58
2022/01/12 05:17:56;;;;;;;;;;;;;;;;;;4220052;28;1471;-58
2022/01/12 05:20:16;;;;;;;;;;;;;;;;;;4219871;28;1447;-58
2022/01/12 05:22:37;;;;;;;;;;;;;;;;;;4220511;28;1534;-58
2022/01/12 05:24:58;;;;;;;;;;;;;;;;;;4218851;28;1621;-58
2022/01/12 05:27:19;;;;;;;;;;;;;;;;;;4218020;28;1490;-60
2022/01/12 05:29:40;;;;;;;;;;;;;;;;;;4220881;28;1414;-58
2022/01/12 05:32:00;;;;;;;;;;;;;;;;;;4221173;28;1713;-58
2022/01/12 05:34:21;;;;;;;;;;;;;;;;;;4220545;28;1867;-60
2022/01/12 05:36:42;;;;;;;;;;;;;;;;;;4217782;28;1499;-58
2022/01/12 05:39:02;;;;;;;;;;;;;;;;;;4218457;28;1704;-58
2022/01/12 05:41:22;;;;;;;;;;;;;;;;;;4221244;28;1435;-60
2022/01/12 05:43:46;;;;;;;;;;;;;;;;;;4223526;28;1340;-58
2022/01/12 05:46:10;;;;;;;;;;;;;;;;;;4223274;28;2199;-59
2022/01/12 05:51:09;;;;;;;;;;;;;;;;;;4225794;28;1577;-59
2022/01/12 05:53:30;;;;;;;;;;;;;;;;;;4224519;28;1479;-58
2022/01/12 05:55:50;;;;;;;;;;;;;;;;;;4227194;28;1124;-58
2022/01/12 05:58:11;;;;;;;;;;;;;;;;;;4226105;28;841;-59
2022/01/12 06:00:32;;;;;;;;;;;;;;;;;;4226257;28;923;-58
2022/01/12 06:02:55;;;;;;;;;;;;;;;;;;4226990;28;1008;-59
2022/01/12 06:05:18;;;;;;;;;;;;;;;;;;4226129;28;856;-59
2022/01/12 06:07:38;;;;;;;;;;;;;;;;;;4226068;28;1055;-59
2022/01/12 06:09:59;;;;;;;;;;;;;;;;;;4226219;28;961;-59
2022/01/12 06:12:19;;;;;;;;;;;;;;;;;;4225962;28;919;-59
2022/01/12 06:14:41;;;;;;;;;;;;;;;;;;4225915;28;838;-59
2022/01/12 06:17:02;;;;;;;;;;;;;;;;;;4225934;28;961;-59
2022/01/12 06:19:23;;;;;;;;;;;;;;;;;;4226817;28;1087;-58
2022/01/12 06:21:55;;;;;;;;;;;;;;;;;;4211743;28;948;-59
2022/01/12 06:24:21;;;;;;;;;;;;;;;;;;4211316;28;941;-58
2022/01/12 06:26:43;;;;;;;;;;;;;;;;;;4226824;28;1991;-59
2022/01/12 06:31:42;;;;;;;;;;;;;;;;;;4200679;28;3039;-59
2022/01/12 06:34:02;;;;;;;;;;;;;;;;;;4209883;28;1212;-58
2022/01/12 06:36:22;;;;;;;;;;;;;;;;;;4194780;28;925;-58
2022/01/12 06:38:43;;;;;;;;;;;;;;;;;;4194531;28;1286;-58
2022/01/12 06:41:04;;;;;;;;;;;;;;;;;;4209933;28;1024;-58
2022/01/12 06:43:24;;;;;;;;;;;;;;;;;;4194820;28;1276;-58
2022/01/12 06:45:44;;;;;;;;;;;;;;;;;;4194408;28;1972;-59
2022/01/12 06:48:05;;;;;;;;;;;;;;;;;;4209938;28;1113;-58
2022/01/12 06:50:25;;;;;;;;;;;;;;;;;;4223321;28;979;-58
2022/01/12 06:52:47;;;;;;;;;;;;;;;;;;4191345;28;1223;-58
2022/01/12 06:55:07;;;;;;;;;;;;;;;;;;4191782;28;1006;-58
2022/01/12 06:57:30;;;;;;;;;;;;;;;;;;4191545;28;1014;-58
2022/01/12 06:59:51;;;;;;;;;;;;;;;;;;4206897;28;986;-58
2022/01/12 07:02:14;;;;;;;;;;;;;;;;;;4219849;28;1062;-59
2022/01/12 07:04:35;;;;;;;;;;;;;;;;;;4191360;28;1046;-58
2022/01/12 07:06:56;;;;;;;;;;;;;;;;;;4191546;28;1926;-58
2022/01/12 07:09:17;;;;;;;;;;;;;;;;;;4191125;28;943;-59
2022/01/12 07:11:49;;;;;;;;;;;;;;;;;;4191668;28;883;-58
2022/01/12 07:14:17;;;;;;;;;;;;;;;;;;4191595;28;845;-58
2022/01/12 07:16:37;;;;;;;;;;;;;;;;;;4191608;28;868;-58
2022/01/12 07:18:59;;;;;;;;;;;;;;;;;;4191055;28;1603;-59
2022/01/12 07:21:21;;;;;;;;;;;;;;;;;;4191641;28;866;-58
2022/01/12 07:23:41;;;;;;;;;;;;;;;;;;4206020;28;1091;-58
2022/01/12 07:26:02;;;;;;;;;;;;;;;;;;4206273;28;1980;-59
2022/01/12 07:28:23;;;;;;;;;;;;;;;;;;4206354;28;1152;-58
2022/01/12 07:30:43;;;;;;;;;;;;;;;;;;4206676;28;1312;-58
2022/01/12 07:33:03;;;;;;;;;;;;;;;;;;4206075;28;1052;-59
2022/01/12 07:35:24;;;;;;;;;;;;;;;;;;4206662;28;837;-58
2022/01/12 07:37:44;;;;;;;;;;;;;;;;;;4206574;28;1287;-58
2022/01/12 07:40:05;;;;;;;;;;;;;;;;;;4206325;28;1022;-59
2022/01/12 07:42:25;;;;;;;;;;;;;;;;;;4206065;28;1232;-62
2022/01/12 07:44:46;;;;;;;;;;;;;;;;;;4205939;28;1074;-58
2022/01/12 07:47:06;;;;;;;;;;;;;;;;;;4206285;28;1910;-58
2022/01/12 07:49:26;;;;;;;;;;;;;;;;;;4206843;28;913;-58
2022/01/12 07:51:47;;;;;;;;;;;;;;;;;;4205957;28;1015;-58
2022/01/12 07:54:07;;;;;;;;;;;;;;;;;;4206231;28;993;-60
2022/01/12 07:56:28;;;;;;;;;;;;;;;;;;4205928;28;958;-60
2022/01/12 07:58:48;;;;;;;;;;;;;;;;;;4205779;28;1196;-55
2022/01/12 08:01:08;;;;;;;;;;;;;;;;;;4205796;28;939;-55
2022/01/12 08:03:29;;;;;;;;;;;;;;;;;;4205505;28;1226;-54
2022/01/12 08:05:50;;;;;;;;;;;;;;;;;;4205781;28;968;-55
2022/01/12 08:08:12;;;;;;;;;;;;;;;;;;4205701;28;1000;-54
2022/01/12 08:10:32;;;;;;;;;;;;;;;;;;4206040;28;920;-55
2022/01/12 08:12:53;;;;;;;;;;;;;;;;;;4205698;28;1105;-55
2022/01/12 08:15:13;;;;;;;;;;;;;;;;;;4206090;28;984;-55
2022/01/12 08:17:33;;;;;;;;;;;;;;;;;;4218994;28;1368;-56
2022/01/12 08:19:56;;;;;;;;;;;;;;;;;;4217460;28;3182;-54
2022/01/12 08:22:17;;;;;;;;;;;;;;;;;;4218894;28;1443;-55
2022/01/12 08:24:37;;;;;;;;;;;;;;;;;;4213771;28;2098;-54
2022/01/12 08:26:57;;;;;;;;;;;;;;;;;;4212396;28;2307;-54
2022/01/12 08:29:18;;;;;;;;;;;;;;;;;;4218042;28;996;-54
2022/01/12 08:31:38;;;;;;;;;;;;;;;;;;4207271;28;1081;-54
2022/01/12 08:33:58;;;;;;;;;;;;;;;;;;4222235;28;1108;-54
2022/01/12 08:36:19;;;;;;;;;;;;;;;;;;4216749;28;2836;-54
2022/01/12 08:38:39;;;;;;;;;;;;;;;;;;4214840;28;1079;-54
2022/01/12 08:41:00;;;;;;;;;;;;;;;;;;4222313;28;1002;-54
2022/01/12 08:43:20;;;;;;;;;;;;;;;;;;4222498;28;826;-54
2022/01/12 08:45:41;;;;;;;;;;;;;;;;;;4217399;28;2046;-54
2022/01/12 08:48:01;;;;;;;;;;;;;;;;;;4203267;28;2407;-54
2022/01/12 08:50:21;;;;;;;;;;;;;;;;;;4219923;28;1753;-54
2022/01/12 08:52:44;;;;;;;;;;;;;;;;;;4220066;28;1376;-54
2022/01/12 08:55:04;;;;;;;;;;;;;;;;;;4221922;28;977;-54
2022/01/12 08:57:25;;;;;;;;;;;;;;;;;;4219020;28;2835;-54
2022/01/12 08:59:45;;;;;;;;;;;;;;;;;;4218090;28;1108;-54
2022/01/12 09:02:06;;;;;;;;;;;;;;;;;;4205325;28;1045;-54
2022/01/12 09:04:27;;;;;;;;;;;;;;;;;;4204987;28;1041;-54
2022/01/12 09:06:47;;;;;;;;;;;;;;;;;;4205201;28;1909;-54
2022/01/12 09:09:08;;;;;;;;;;;;;;;;;;4218393;28;3078;-54
2022/01/12 09:11:28;;;;;;;;;;;;;;;;;;4207629;28;1530;-55
2022/01/12 09:13:48;;;;;;;;;;;;;;;;;;4213472;28;1096;-54
2022/01/12 09:16:10;;;;;;;;;;;;;;;;;;4220839;28;962;-55
2022/01/12 09:18:31;;;;;;;;;;;;;;;;;;4204897;28;2137;-54
2022/01/12 09:20:53;;;;;;;;;;;;;;;;;;4214826;28;1940;-54
2022/01/12 09:23:13;;;;;;;;;;;;;;;;;;4220866;28;1491;-55
2022/01/12 09:25:38;;;;;;;;;;;;;;;;;;4221485;28;2211;-55
2022/01/12 09:28:02;;;;;;;;;;;;;;;;;;4217859;28;2260;-55
2022/01/12 09:30:24;;;;;;;;;;;;;;;;;;4218453;28;1055;-55
2022/01/12 09:32:45;;;;;;;;;;;;;;;;;;4216797;28;2045;-55
2022/01/12 09:35:05;;;;;;;;;;;;;;;;;;4218847;28;1696;-55
2022/01/12 09:37:25;;;;;;;;;;;;;;;;;;4221212;28;1710;-55
2022/01/12 09:39:46;;;;;;;;;;;;;;;;;;4221303;28;1623;-55
2022/01/12 09:42:06;;;;;;;;;;;;;;;;;;4216782;28;1939;-55
2022/01/12 09:44:27;;;;;;;;;;;;;;;;;;4217596;28;1611;-55
2022/01/12 09:46:47;;;;;;;;;;;;;;;;;;4226765;28;1982;-55
2022/01/12 09:49:08;;;;;;;;;;;;;;;;;;4219991;28;1768;-55
2022/01/12 09:51:28;;;;;;;;;;;;;;;;;;4223372;28;1619;-55
2022/01/12 09:53:48;;;;;;;;;;;;;;;;;;4205410;28;2833;-55
2022/01/12 09:56:09;;;;;;;;;;;;;;;;;;4212331;28;1202;-55
2022/01/12 09:58:29;;;;;;;;;;;;;;;;;;4221442;28;1165;-55
2022/01/12 10:00:49;;;;;;;;;;;;;;;;;;4221390;28;1059;-55
2022/01/12 10:03:10;;;;;;;;;;;;;;;;;;4219082;28;2111;-55
2022/01/12 10:05:31;;;;;;;;;;;;;;;;;;4213678;28;1036;-55
2022/01/12 10:07:53;;;;;;;;;;;;;;;;;;4209300;28;1983;-56
2022/01/12 10:10:15;;;;;;;;;;;;;;;;;;4204758;28;1198;-55
2022/01/12 10:12:35;;;;;;;;;;;;;;;;;;4204698;28;1077;-55
2022/01/12 10:14:58;;;;;;;;;;;;;;;;;;4217009;28;1185;-55
2022/01/12 10:17:18;;;;;;;;;;;;;;;;;;4211087;28;2124;-54
2022/01/12 10:19:39;;;;;;;;;;;;;;;;;;4215993;28;1347;-55
2022/01/12 10:21:59;;;;;;;;;;;;;;;;;;4221013;28;1098;-54
2022/01/12 10:24:20;;;;;;;;;;;;;;;;;;4216823;28;2437;-54
2022/01/12 10:26:41;;;;;;;;;;;;;;;;;;4208554;28;2031;-55
2022/01/12 10:29:02;;;;;;;;;;;;;;;;;;4193107;28;2613;-56
2022/01/12 10:31:23;;;;;;;;;;;;;;;;;;4216909;28;965;-55
2022/01/12 10:33:43;;;;;;;;;;;;;;;;;;4223998;28;1073;-56
2022/01/12 10:36:05;;;;;;;;;;;;;;;;;;4224015;28;927;-55
2022/01/12 10:38:26;;;;;;;;;;;;;;;;;;4209074;28;1868;-54
2022/01/12 10:40:46;;;;;;;;;;;;;;;;;;4207231;28;1051;-54
2022/01/12 10:43:06;;;;;;;;;;;;;;;;;;4207131;28;932;-55
2022/01/12 10:45:27;;;;;;;;;;;;;;;;;;4206973;28;1268;-54
2022/01/12 10:47:47;;;;;;;;;;;;;;;;;;4206795;28;2035;-55
2022/01/12 10:50:07;;;;;;;;;;;;;;;;;;4212739;28;1877;-55
2022/01/12 10:52:28;;;;;;;;;;;;;;;;;;4200909;28;1952;-55
2022/01/12 10:54:49;;;;;;;;;;;;;;;;;;4212873;28;2765;-55
2022/01/12 10:57:10;;;;;;;;;;;;;;;;;;4207160;28;1046;-54
2022/01/12 10:59:31;;;;;;;;;;;;;;;;;;4206880;28;1186;-55
2022/01/12 11:01:51;;;;;;;;;;;;;;;;;;4206940;28;839;-54
2022/01/12 11:04:11;;;;;;;;;;;;;;;;;;4207093;28;2633;-54
2022/01/12 11:06:32;;;;;;;;;;;;;;;;;;4206571;28;1114;-55
2022/01/12 11:08:52;;;;;;;;;;;;;;;;;;4206410;28;1906;-55
2022/01/12 11:11:12;;;;;;;;;;;;;;;;;;4206822;28;1162;-55
2022/01/12 11:13:33;;;;;;;;;;;;;;;;;;4211029;28;1235;-55
2022/01/12 11:15:53;;;;;;;;;;;;;;;;;;4219514;28;3011;-55
2022/01/12 11:18:14;;;;;;;;;;;;;;;;;;4206735;28;1053;-55
2022/01/12 11:20:34;;;;;;;;;;;;;;;;;;4207283;28;1409;-55
2022/01/12 11:22:55;;;;;;;;;;;;;;;;;;4195949;28;2073;-55
2022/01/12 11:25:15;;;;;;;;;;;;;;;;;;4223018;28;1220;-54
2022/01/12 11:27:35;;;;;;;;;;;;;;;;;;4223345;28;1980;-55
2022/01/12 11:29:57;;;;;;;;;;;;;;;;;;4223368;28;890;-54
2022/01/12 11:32:17;;;;;;;;;;;;;;;;;;4222935;28;1358;-54
2022/01/12 11:34:38;;;;;;;;;;;;;;;;;;4222868;28;1379;-55
2022/01/12 11:36:58;;;;;;;;;;;;;;;;;;4219118;28;3510;-54
2022/01/12 11:39:18;;;;;;;;;;;;;;;;;;4209770;28;2279;-55
2022/01/12 11:41:38;;;;;;;;;;;;;;;;;;4219350;28;1177;-54
2022/01/12 11:43:59;;;;;;;;;;;;;;;;;;4211399;28;2248;-55
2022/01/12 11:46:19;;;;;;;;;;;;;;;;;;4210193;28;2654;-54
2022/01/12 11:48:39;;;;;;;;;;;;;;;;;;4204573;28;2364;-55
2022/01/12 11:50:59;;;;;;;;;;;;;;;;;;4219183;28;1975;-55
2022/01/12 11:53:20;;;;;;;;;;;;;;;;;;4216187;28;1003;-54
2022/01/12 11:55:40;;;;;;;;;;;;;;;;;;4205897;28;1010;-55
2022/01/12 11:58:03;;;;;;;;;;;;;;;;;;4206012;28;1023;-55
2022/01/12 12:00:27;;;;;;;;;;;;;;;;;;4207813;28;1785;-55
2022/01/12 12:02:48;;;;;;;;;;;;;;;;;;4208021;28;2006;-55
2022/01/12 12:05:08;;;;;;;;;;;;;;;;;;4211679;28;2990;-54
2022/01/12 12:07:29;;;;;;;;;;;;;;;;;;4214028;28;3066;-55
2022/01/12 12:09:53;;;;;;;;;;;;;;;;;;4206815;28;1204;-55
2022/01/12 12:12:13;;;;;;;;;;;;;;;;;;4205854;28;982;-55
2022/01/12 12:14:34;;;;;;;;;;;;;;;;;;4205794;28;1198;-54
2022/01/12 12:16:54;;;;;;;;;;;;;;;;;;4211945;28;3311;-55
2022/01/12 12:19:14;;;;;;;;;;;;;;;;;;4217252;28;1215;-55
2022/01/12 12:21:35;;;;;;;;;;;;;;;;;;4222259;28;982;-54
2022/01/12 12:23:56;;;;;;;;;;;;;;;;;;4222747;28;1150;-54
2022/01/12 12:26:16;;;;;;;;;;;;;;;;;;4218833;28;1465;-54
2022/01/12 12:28:36;;;;;;;;;;;;;;;;;;4216642;28;1906;-54
2022/01/12 12:30:57;;;;;;;;;;;;;;;;;;4217531;28;1913;-54
2022/01/12 12:33:17;;;;;;;;;;;;;;;;;;4214035;28;1066;-56
2022/01/12 12:35:38;;;;;;;;;;;;;;;;;;4206525;28;1170;-55
2022/01/12 12:37:58;;;;;;;;;;;;;;;;;;4213585;28;2486;-54
2022/01/12 12:40:18;;;;;;;;;;;;;;;;;;4215451;28;961;-55
2022/01/12 12:42:39;;;;;;;;;;;;;;;;;;4221710;28;935;-55
2022/01/12 12:45:02;;;;;;;;;;;;;;;;;;4219055;28;2246;-54
2022/01/12 12:47:23;;;;;;;;;;;;;;;;;;4210921;28;1941;-55
2022/01/12 12:49:43;;;;;;;;;;;;;;;;;;4204460;28;1902;-55
2022/01/12 12:52:03;;;;;;;;;;;;;;;;;;4205095;28;929;-54
2022/01/12 12:54:24;;;;;;;;;;;;;;;;;;4204748;28;1670;-55
2022/01/12 12:56:49;;;;;;;;;;;;;;;;;;4205288;28;933;-56
2022/01/12 12:59:09;;;;;;;;;;;;;;;;;;4205281;28;1366;-56
2022/01/12 13:01:30;;;;;;;;;;;;;;;;;;4205031;28;1170;-57
2022/01/12 13:03:50;;;;;;;;;;;;;;;;;;4205048;28;968;-55
2022/01/12 13:06:10;;;;;;;;;;;;;;;;;;4205134;28;1070;-56
2022/01/12 13:08:31;;;;;;;;;;;;;;;;;;4204788;28;1909;-56
2022/01/12 13:10:51;;;;;;;;;;;;;;;;;;4204733;28;966;-55
2022/01/12 13:13:11;;;;;;;;;;;;;;;;;;4204742;28;1024;-56
2022/01/12 13:15:32;;;;;;;;;;;;;;;;;;4212672;28;1892;-55
2022/01/12 13:17:52;;;;;;;;;;;;;;;;;;4220953;28;1513;-55
2022/01/12 13:22:51;;;;;;;;;;;;;;;;;;4221195;28;1163;-55
2022/01/12 13:25:12;;;;;;;;;;;;;;;;;;4220970;28;965;-55
2022/01/12 13:27:32;;;;;;;;;;;;;;;;;;4237060;28;1358;-55
2022/01/12 13:29:52;;;;;;;;;;;;;;;;;;4232547;28;1929;-55
2022/01/12 13:32:12;;;;;;;;;;;;;;;;;;4220523;28;1088;-56
2022/01/12 13:34:41;;;;;;;;;;;;;;;;;;4220846;28;1567;-56
2022/01/12 13:37:02;;;;;;;;;;;;;;;;;;4220967;28;1145;-55
2022/01/12 13:39:23;;;;;;;;;;;;;;;;;;4221231;28;814;-55
2022/01/12 13:41:45;;;;;;;;;;;;;;;;;;4220749;28;997;-56
2022/01/12 13:44:07;;;;;;;;;;;;;;;;;;4220761;28;959;-55
2022/01/12 13:46:28;;;;;;;;;;;;;;;;;;4204026;28;1113;-55
2022/01/12 13:49:03;;;;;;;;;;;;;;;;;;4204231;28;1988;-56
2022/01/12 13:51:23;;;;;;;;;;;;;;;;;;4203968;28;1062;-55
2022/01/12 13:53:44;;;;;;;;;;;;;;;;;;4204306;28;887;-56
2022/01/12 13:56:04;;;;;;;;;;;;;;;;;;4204200;28;1050;-55
2022/01/12 13:58:25;;;;;;;;;;;;;;;;;;4203879;28;1099;-56
2022/01/12 14:00:45;;;;;;;;;;;;;;;;;;4216521;28;1264;-57
2022/01/12 14:03:05;;;;;;;;;;;;;;;;;;4223361;28;1226;-55
2022/01/12 14:05:26;;;;;;;;;;;;;;;;;;4224136;28;1082;-56
2022/01/12 14:07:59;;;;;;;;;;;;;;;;;;4223582;28;950;-56
2022/01/12 14:10:19;;;;;;;;;;;;;;;;;;4223675;28;1973;-56
2022/01/12 14:12:40;;;;;;;;;;;;;;;;;;4223085;28;1350;-56
2022/01/12 14:15:00;;;;;;;;;;;;;;;;;;4222964;28;1379;-56
2022/01/12 14:17:20;;;;;;;;;;;;;;;;;;4223482;28;1370;-56
2022/01/12 14:19:40;;;;;;;;;;;;;;;;;;4217903;28;2350;-56
2022/01/12 14:22:01;;;;;;;;;;;;;;;;;;4202655;28;3018;-56
2022/01/12 14:24:21;;;;;;;;;;;;;;;;;;4217764;28;1184;-55
2022/01/12 14:26:42;;;;;;;;;;;;;;;;;;4223315;28;1210;-55
2022/01/12 14:29:02;;;;;;;;;;;;;;;;;;4223082;28;1906;-55
2022/01/12 14:31:22;;;;;;;;;;;;;;;;;;4223833;28;1004;-55
2022/01/12 14:33:42;;;;;;;;;;;;;;;;;;4223209;28;1084;-55
2022/01/12 14:36:03;;;;;;;;;;;;;;;;;;4223583;28;1016;-55
2022/01/12 14:38:23;;;;;;;;;;;;;;;;;;4223515;28;1298;-56
2022/01/12 14:40:43;;;;;;;;;;;;;;;;;;4218191;28;2641;-55
2022/01/12 14:43:03;;;;;;;;;;;;;;;;;;4206716;28;1132;-55
2022/01/12 14:45:25;;;;;;;;;;;;;;;;;;4216449;28;1098;-55
2022/01/12 14:47:45;;;;;;;;;;;;;;;;;;4223103;28;993;-56
2022/01/12 14:50:05;;;;;;;;;;;;;;;;;;4223517;28;1910;-56
2022/01/12 14:52:26;;;;;;;;;;;;;;;;;;4223390;28;855;-56
2022/01/12 14:54:46;;;;;;;;;;;;;;;;;;4222652;28;1208;-55
2022/01/12 14:57:06;;;;;;;;;;;;;;;;;;4223004;28;1058;-56
2022/01/12 14:59:27;;;;;;;;;;;;;;;;;;4222831;28;1196;-56
2022/01/12 15:01:47;;;;;;;;;;;;;;;;;;4222880;28;1161;-56
2022/01/12 15:04:07;;;;;;;;;;;;;;;;;;4223196;28;953;-55
2022/01/12 15:06:28;;;;;;;;;;;;;;;;;;4223185;28;953;-56
2022/01/12 15:08:48;;;;;;;;;;;;;;;;;;4222753;28;1955;-55
2022/01/12 15:11:10;;;;;;;;;;;;;;;;;;4218142;28;1063;-56
2022/01/12 15:13:41;;;;;;;;;;;;;;;;;;4221153;28;1199;-55
2022/01/12 15:16:02;;;;;;;;;;;;;;;;;;4222786;28;1214;-56
2022/01/12 15:18:22;;;;;;;;;;;;;;;;;;4222745;28;1226;-56
2022/01/12 15:20:43;;;;;;;;;;;;;;;;;;4222687;28;1029;-56
2022/01/12 15:23:03;;;;;;;;;;;;;;;;;;4222694;28;988;-56
2022/01/12 15:25:25;;;;;;;;;;;;;;;;;;4222643;28;1105;-55
2022/01/12 15:27:46;;;;;;;;;;;;;;;;;;4223081;28;832;-56
2022/01/12 15:30:06;;;;;;;;;;;;;;;;;;4222386;28;1984;-56
2022/01/12 15:32:27;;;;;;;;;;;;;;;;;;4223079;28;863;-56
2022/01/12 15:34:47;;;;;;;;;;;;;;;;;;4222593;28;1269;-56
2022/01/12 15:37:08;;;;;;;;;;;;;;;;;;4222567;28;996;-57
2022/01/12 15:39:28;;;;;;;;;;;;;;;;;;4222512;28;1455;-55
2022/01/12 15:41:48;;;;;;;;;;;;;;;;;;4222452;28;986;-56
2022/01/12 15:44:09;;;;;;;;;;;;;;;;;;4222500;28;961;-57
2022/01/12 15:46:29;;;;;;;;;;;;;;;;;;4222622;28;1151;-56
2022/01/12 15:48:49;;;;;;;;;;;;;;;;;;4222517;28;945;-56
2022/01/12 15:51:10;;;;;;;;;;;;;;;;;;4222338;28;981;-56
2022/01/12 15:53:30;;;;;;;;;;;;;;;;;;4222163;28;1137;-55
2022/01/12 15:55:50;;;;;;;;;;;;;;;;;;4222369;28;1016;-56
2022/01/12 15:58:11;;;;;;;;;;;;;;;;;;4211818;28;1108;-56
2022/01/12 16:00:35;;;;;;;;;;;;;;;;;;4216368;28;1034;-56
2022/01/12 16:02:56;;;;;;;;;;;;;;;;;;4221653;28;1204;-56
2022/01/12 16:05:18;;;;;;;;;;;;;;;;;;4222046;28;1091;-55
2022/01/12 16:07:39;;;;;;;;;;;;;;;;;;4222472;28;1246;-56
2022/01/12 16:09:59;;;;;;;;;;;;;;;;;;4221900;28;1981;-56
2022/01/12 16:12:21;;;;;;;;;;;;;;;;;;4222204;28;974;-56
2022/01/12 16:14:41;;;;;;;;;;;;;;;;;;4208504;28;1242;-55
2022/01/12 16:17:04;;;;;;;;;;;;;;;;;;4221878;28;1121;-55
2022/01/12 16:19:25;;;;;;;;;;;;;;;;;;4222366;28;1212;-56
2022/01/12 16:21:46;;;;;;;;;;;;;;;;;;4222116;28;1155;-56
2022/01/12 16:24:06;;;;;;;;;;;;;;;;;;4222275;28;995;-56
2022/01/12 16:26:27;;;;;;;;;;;;;;;;;;4222510;28;824;-56
2022/01/12 16:28:47;;;;;;;;;;;;;;;;;;4221843;28;1024;-56
2022/01/12 16:31:07;;;;;;;;;;;;;;;;;;4221935;28;1909;-55
2022/01/12 16:33:29;;;;;;;;;;;;;;;;;;4221600;28;985;-55
2022/01/12 16:35:50;;;;;;;;;;;;;;;;;;4221855;28;1108;-56
2022/01/12 16:38:10;;;;;;;;;;;;;;;;;;4221894;28;1201;-55
2022/01/12 16:40:31;;;;;;;;;;;;;;;;;;4221986;28;959;-56
2022/01/12 16:42:51;;;;;;;;;;;;;;;;;;4221865;28;1009;-56
2022/01/12 16:45:11;;;;;;;;;;;;;;;;;;4221673;28;1321;-55
2022/01/12 16:47:35;;;;;;;;;;;;;;;;;;4221894;28;889;-56
2022/01/12 16:49:56;;;;;;;;;;;;;;;;;;4215082;28;1910;-55
2022/01/12 16:52:16;;;;;;;;;;;;;;;;;;4204793;28;999;-55
2022/01/12 16:54:37;;;;;;;;;;;;;;;;;;4204496;28;1126;-55
2022/01/12 16:56:57;;;;;;;;;;;;;;;;;;4204784;28;1195;-55
2022/01/12 16:59:17;;;;;;;;;;;;;;;;;;4208306;28;3201;-55
2022/01/12 17:01:38;;;;;;;;;;;;;;;;;;4221381;28;1179;-55
2022/01/12 17:03:58;;;;;;;;;;;;;;;;;;4221471;28;943;-55
2022/01/12 17:06:18;;;;;;;;;;;;;;;;;;4221736;28;1012;-55
2022/01/12 17:08:41;;;;;;;;;;;;;;;;;;4221557;28;1048;-55
2022/01/12 17:11:01;;;;;;;;;;;;;;;;;;4221223;28;1901;-56
2022/01/12 17:13:22;;;;;;;;;;;;;;;;;;4221731;28;1011;-55
2022/01/12 17:15:42;;;;;;;;;;;;;;;;;;4220697;28;1219;-55
2022/01/12 17:18:02;;;;;;;;;;;;;;;;;;4221214;28;1049;-55
2022/01/12 17:20:23;;;;;;;;;;;;;;;;;;4221183;28;1054;-56
2022/01/12 17:22:44;;;;;;;;;;;;;;;;;;4220939;28;1010;-54
2022/01/12 17:25:04;;;;;;;;;;;;;;;;;;4221511;28;1013;-55
2022/01/12 17:27:24;;;;;;;;;;;;;;;;;;4221424;28;1084;-55
2022/01/12 17:29:44;;;;;;;;;;;;;;;;;;4221208;28;1914;-55
2022/01/12 17:32:05;;;;;;;;;;;;;;;;;;4222323;28;1337;-54
2022/01/12 17:34:25;;;;;;;;;;;;;;;;;;4227928;28;1052;-55